Time;durP1;ratioP1;P1;durP2;ratioP2;P2;SDS_P1;SDS_P2;PMS_P1;PMS_P2;Temp;Humidity;BMP_temperature;BMP_pressure;BME280_temperature;BME280_humidity;BME280_pressure;Samples;Min_cycle;Max_cycle;Signal;HPM_P1;HPM_P2
2021/12/21 00:01:37;;;;;;;14.30;7.03;;;3.40;99.90;;;;;;4141120;28;20034;-64
2021/12/21 00:03:38;;;;;;;19.75;7.70;;;3.40;99.90;;;;;;4139146;28;20038;-64
2021/12/21 00:05:39;;;;;;;22.77;7.88;;;3.30;99.90;;;;;;4145860;28;20161;-64
2021/12/21 00:07:41;;;;;;;20.15;8.65;;;3.40;99.90;;;;;;4141720;28;20080;-64
2021/12/21 00:09:41;;;;;;;23.05;7.38;;;3.30;99.90;;;;;;4144880;28;20030;-64
2021/12/21 00:11:42;;;;;;;15.73;7.55;;;3.30;99.90;;;;;;4146713;28;20061;-65
2021/12/21 00:16:01;;;;;;;22.33;8.82;;;3.30;99.90;;;;;;4141157;28;20088;-65
2021/12/21 00:24:35;;;;;;;16.15;7.63;;;3.30;99.90;;;;;;4143679;28;20480;-64
2021/12/21 00:26:37;;;;;;;17.67;7.88;;;3.30;99.90;;;;;;4145486;28;20045;-64
2021/12/21 00:29:02;;;;;;;20.88;8.45;;;3.20;99.90;;;;;;4138095;28;20468;-64
2021/12/21 00:31:00;;;;;;;18.35;7.47;;;3.30;99.90;;;;;;4143007;28;20486;-65
2021/12/21 00:33:01;;;;;;;20.20;8.25;;;3.20;99.90;;;;;;4144389;28;20045;-64
2021/12/21 00:35:02;;;;;;;19.42;8.35;;;3.20;99.90;;;;;;4145958;28;20034;-65
2021/12/21 00:37:04;;;;;;;18.70;7.95;;;3.20;99.90;;;;;;4143818;28;20038;-64
2021/12/21 00:39:07;;;;;;;21.20;9.00;;;3.20;99.90;;;;;;4144221;28;20034;-64
2021/12/21 00:41:09;;;;;;;19.95;7.47;;;3.20;99.90;;;;;;4143761;28;20030;-65
2021/12/21 00:43:09;;;;;;;20.13;8.00;;;3.10;99.90;;;;;;4140888;28;20077;-64
2021/12/21 00:45:10;;;;;;;16.83;6.85;;;3.20;99.90;;;;;;4142338;28;20048;-66
2021/12/21 00:47:11;;;;;;;14.38;7.55;;;3.10;99.90;;;;;;4137451;28;20057;-64
2021/12/21 00:49:14;;;;;;;17.13;7.32;;;3.10;99.90;;;;;;4145966;28;20544;-64
2021/12/21 00:51:16;;;;;;;16.75;6.97;;;3.10;99.90;;;;;;4145351;28;20034;-64
2021/12/21 00:53:16;;;;;;;15.80;7.75;;;3.10;99.90;;;;;;4140274;28;20125;-64
2021/12/21 00:55:18;;;;;;;14.20;7.53;;;3.10;99.90;;;;;;4140434;28;20076;-65
2021/12/21 00:57:19;;;;;;;18.48;8.60;;;3.10;99.90;;;;;;4139585;28;20036;-64
2021/12/21 00:59:20;;;;;;;19.23;7.25;;;3.10;99.90;;;;;;4143394;28;20102;-64
2021/12/21 01:01:20;;;;;;;17.45;7.18;;;3.10;99.90;;;;;;4143112;28;20541;-64
2021/12/21 01:03:21;;;;;;;18.33;7.97;;;3.10;99.90;;;;;;4143382;28;20109;-64
2021/12/21 01:05:32;;;;;;;16.70;7.57;;;3.10;99.90;;;;;;4141220;28;20498;-65
2021/12/21 01:07:38;;;;;;;18.50;7.80;;;3.10;99.90;;;;;;4140632;28;20034;-64
2021/12/21 01:11:56;;;;;;;25.10;7.93;;;3.00;99.90;;;;;;4146241;28;20037;-64
2021/12/21 01:18:12;;;;;;;18.48;8.25;;;3.00;99.90;;;;;;4136045;28;20049;-64
2021/12/21 01:20:27;;;;;;;20.75;8.43;;;3.00;99.90;;;;;;4137400;28;20038;-65
2021/12/21 01:25:10;;;;;;;17.00;8.50;;;3.00;99.90;;;;;;4119957;28;20047;-64
2021/12/21 01:27:22;;;;;;;16.10;7.63;;;3.00;99.90;;;;;;4131455;28;20046;-65
2021/12/21 01:29:54;;;;;;;20.87;8.23;;;3.00;99.90;;;;;;4137671;28;20030;-64
2021/12/21 01:32:11;;;;;;;25.02;8.15;;;3.00;99.90;;;;;;4142250;28;20042;-64
2021/12/21 01:39:05;;;;;;;19.30;7.32;;;2.90;99.90;;;;;;4143242;28;20068;-65
2021/12/21 01:41:21;;;;;;;17.25;7.15;;;2.90;99.90;;;;;;4140786;28;20034;-65
2021/12/21 01:50:07;;;;;;;16.83;6.88;;;2.80;99.90;;;;;;4136097;28;20038;-65
2021/12/21 01:52:13;;;;;;;17.75;7.25;;;2.90;99.90;;;;;;4143342;28;20480;-65
2021/12/21 01:54:14;;;;;;;16.45;7.30;;;2.90;99.90;;;;;;4145577;28;20535;-65
2021/12/21 01:56:16;;;;;;;17.13;8.05;;;2.80;99.90;;;;;;4135442;28;20085;-65
2021/12/21 01:58:16;;;;;;;14.77;7.13;;;2.80;99.90;;;;;;4143178;28;20026;-65
2021/12/21 02:00:17;;;;;;;18.55;7.07;;;2.80;99.90;;;;;;4140642;28;20032;-65
2021/12/21 02:02:21;;;;;;;17.67;7.18;;;2.80;99.90;;;;;;4135349;28;20092;-65
2021/12/21 02:04:21;;;;;;;18.13;8.27;;;2.80;99.90;;;;;;4142380;28;20030;-64
2021/12/21 02:06:26;;;;;;;19.35;7.65;;;2.80;99.90;;;;;;4140608;28;20379;-65
2021/12/21 02:08:27;;;;;;;17.95;7.75;;;2.80;99.90;;;;;;4138882;28;20084;-64
2021/12/21 02:10:29;;;;;;;18.52;7.57;;;2.80;99.90;;;;;;4138587;28;20394;-65
2021/12/21 02:12:30;;;;;;;18.40;8.20;;;2.80;99.90;;;;;;4141521;28;20034;-64
2021/12/21 02:14:31;;;;;;;16.67;7.65;;;2.80;99.90;;;;;;4140036;28;20034;-64
2021/12/21 02:16:45;;;;;;;17.02;7.43;;;2.80;99.90;;;;;;4140805;28;20061;-65
2021/12/21 02:18:55;;;;;;;15.90;7.53;;;2.80;99.90;;;;;;4144263;28;20056;-65
2021/12/21 02:21:02;;;;;;;18.23;8.25;;;2.80;99.90;;;;;;4133061;28;20022;-65
2021/12/21 02:23:11;;;;;;;14.75;7.45;;;2.80;99.90;;;;;;4141966;28;20033;-64
2021/12/21 02:27:40;;;;;;;16.45;7.35;;;2.80;99.90;;;;;;4135174;28;20501;-65
2021/12/21 02:29:40;;;;;;;;;;;2.80;99.90;;;;;;4137148;28;20038;-64
2021/12/21 02:31:44;;;;;;;16.98;7.70;;;2.80;99.90;;;;;;4141672;28;19916;-64
2021/12/21 02:33:47;;;;;;;18.67;8.10;;;2.70;99.90;;;;;;4142277;28;20384;-64
2021/12/21 02:35:48;;;;;;;;;;;2.70;99.90;;;;;;4139337;28;20042;-65
2021/12/21 02:37:48;;;;;;;15.40;7.30;;;2.70;99.90;;;;;;4137612;28;19912;-65
2021/12/21 02:39:49;;;;;;;17.08;7.50;;;2.70;99.90;;;;;;4141114;28;20041;-64
2021/12/21 02:41:50;;;;;;;17.08;7.20;;;2.70;99.90;;;;;;4139295;28;20073;-64
2021/12/21 02:43:51;;;;;;;12.90;6.75;;;2.60;99.90;;;;;;4139242;28;20061;-64
2021/12/21 02:45:51;;;;;;;14.13;6.93;;;2.60;99.90;;;;;;4138243;28;20121;-64
2021/12/21 02:47:52;;;;;;;16.90;7.32;;;2.60;99.90;;;;;;4140248;28;20041;-64
2021/12/21 02:49:53;;;;;;;18.13;7.05;;;2.60;99.90;;;;;;4139549;28;20029;-64
2021/12/21 02:51:53;;;;;;;17.55;7.05;;;2.60;99.90;;;;;;4139256;28;20145;-64
2021/12/21 02:53:54;;;;;;;17.55;7.22;;;2.60;99.90;;;;;;4141870;28;20041;-64
2021/12/21 02:55:55;;;;;;;14.57;7.13;;;2.50;99.90;;;;;;4145236;28;20030;-64
2021/12/21 02:57:57;;;;;;;18.27;7.53;;;2.50;99.90;;;;;;4144953;28;20111;-65
2021/12/21 03:00:00;;;;;;;13.75;6.85;;;2.50;99.90;;;;;;4145629;28;20088;-64
2021/12/21 03:02:01;;;;;;;15.20;6.45;;;2.40;99.90;;;;;;4144584;28;20026;-65
2021/12/21 03:04:02;;;;;;;18.15;7.22;;;2.40;99.90;;;;;;4143195;28;20076;-64
2021/12/21 03:06:09;;;;;;;17.10;6.53;;;2.40;99.90;;;;;;4125988;28;20490;-65
2021/12/21 03:08:15;;;;;;;17.10;7.35;;;2.40;99.90;;;;;;4129391;28;20027;-64
2021/12/21 03:10:23;;;;;;;13.77;7.20;;;2.30;99.90;;;;;;4128558;28;20101;-65
2021/12/21 03:14:26;;;;;;;13.40;6.68;;;2.30;99.90;;;;;;4124530;28;20489;-65
2021/12/21 03:16:26;;;;;;;16.65;7.15;;;2.30;99.90;;;;;;4122513;28;20030;-65
2021/12/21 03:18:27;;;;;;;16.95;6.55;;;2.30;99.90;;;;;;4126764;28;20528;-65
2021/12/21 03:20:27;;;;;;;14.15;6.35;;;2.30;99.90;;;;;;4131423;28;20061;-64
2021/12/21 03:22:28;;;;;;;15.35;7.10;;;2.30;99.90;;;;;;4125463;28;20045;-64
2021/12/21 03:24:29;;;;;;;17.63;7.38;;;2.20;99.90;;;;;;4128433;28;20505;-65
2021/12/21 03:26:29;;;;;;;17.95;7.38;;;2.20;99.90;;;;;;4119870;28;20086;-64
2021/12/21 03:28:30;;;;;;;14.15;6.63;;;2.20;99.90;;;;;;4131407;28;20088;-65
2021/12/21 03:30:31;;;;;;;16.95;6.68;;;2.20;99.90;;;;;;4125520;28;20042;-65
2021/12/21 03:32:32;;;;;;;18.35;7.03;;;2.20;99.90;;;;;;4123303;28;20035;-65
2021/12/21 03:34:33;;;;;;;18.77;7.68;;;2.20;99.90;;;;;;4128420;28;20082;-64
2021/12/21 03:36:33;;;;;;;20.90;8.05;;;2.20;99.90;;;;;;4121940;28;20030;-64
2021/12/21 03:38:35;;;;;;;15.40;6.97;;;2.20;99.90;;;;;;4121232;28;20031;-65
2021/12/21 03:40:36;;;;;;;13.52;6.88;;;2.20;99.90;;;;;;4126596;28;20029;-65
2021/12/21 03:42:37;;;;;;;15.88;7.60;;;2.20;99.90;;;;;;4124232;28;20453;-64
2021/12/21 03:44:38;;;;;;;16.85;7.07;;;2.30;99.90;;;;;;4124295;28;20169;-65
2021/12/21 03:46:54;;;;;;;18.92;7.75;;;2.20;99.90;;;;;;4127036;28;20051;-64
2021/12/21 03:48:55;;;;;;;14.88;6.93;;;2.20;99.90;;;;;;4126587;28;20038;-64
2021/12/21 03:50:55;;;;;;;15.68;6.82;;;2.30;99.90;;;;;;4122363;28;20114;-65
2021/12/21 03:52:56;;;;;;;14.80;6.80;;;2.30;99.90;;;;;;4124866;28;20097;-64
2021/12/21 03:55:00;;;;;;;17.52;7.90;;;2.20;99.90;;;;;;4125917;28;20042;-65
2021/12/21 03:57:02;;;;;;;16.65;6.82;;;2.20;99.90;;;;;;4121561;28;20117;-64
2021/12/21 03:59:02;;;;;;;14.60;6.78;;;2.20;99.90;;;;;;4124201;28;20066;-64
2021/12/21 04:01:03;;;;;;;16.75;6.85;;;2.20;99.90;;;;;;4132193;28;20034;-64
2021/12/21 04:03:04;;;;;;;15.25;6.70;;;2.20;99.90;;;;;;4128850;28;20105;-64
2021/12/21 04:05:05;;;;;;;13.35;6.88;;;2.20;99.90;;;;;;4131476;28;20062;-65
2021/12/21 04:07:06;;;;;;;19.73;7.60;;;2.10;99.90;;;;;;4144339;28;20462;-65
2021/12/21 04:09:07;;;;;;;15.57;6.53;;;2.10;99.90;;;;;;4145292;28;20041;-64
2021/12/21 04:11:08;;;;;;;15.88;5.88;;;2.10;99.90;;;;;;4141075;28;20034;-64
2021/12/21 04:13:10;;;;;;;18.60;7.45;;;2.10;99.90;;;;;;4138934;28;20057;-65
2021/12/21 04:15:13;;;;;;;18.30;7.32;;;2.00;99.90;;;;;;4143977;28;20029;-66
2021/12/21 04:17:21;;;;;;;14.07;6.65;;;2.00;99.90;;;;;;4134923;28;20416;-64
2021/12/21 04:19:22;;;;;;;15.77;6.90;;;2.00;99.90;;;;;;4132656;28;20026;-65
2021/12/21 04:21:23;;;;;;;16.40;6.55;;;2.00;99.90;;;;;;4139555;28;20080;-65
2021/12/21 04:23:23;;;;;;;16.30;6.45;;;1.90;99.90;;;;;;4145249;28;20390;-65
2021/12/21 04:25:24;;;;;;;13.50;6.45;;;2.00;99.90;;;;;;4142755;28;20140;-65
2021/12/21 04:27:24;;;;;;;14.43;6.90;;;2.00;99.90;;;;;;4140394;28;20036;-65
2021/12/21 04:29:25;;;;;;;13.80;7.28;;;2.00;99.90;;;;;;4144129;28;20380;-65
2021/12/21 04:31:26;;;;;;;22.02;8.55;;;2.00;99.90;;;;;;4143207;28;20442;-65
2021/12/21 04:33:26;;;;;;;16.85;7.68;;;2.00;99.90;;;;;;4136415;28;20374;-65
2021/12/21 04:35:27;;;;;;;20.45;7.38;;;2.00;99.90;;;;;;4142798;28;20029;-64
2021/12/21 04:37:28;;;;;;;16.00;6.82;;;2.00;99.90;;;;;;4139363;28;20049;-64
2021/12/21 04:41:29;;;;;;;13.85;6.50;;;2.00;99.90;;;;;;4142858;28;20034;-65
2021/12/21 04:43:29;;;;;;;14.85;7.20;;;2.00;99.90;;;;;;4139581;28;20571;-64
2021/12/21 04:45:31;;;;;;;14.25;7.32;;;2.00;99.90;;;;;;4144725;28;20049;-65
2021/12/21 04:47:31;;;;;;;16.20;8.00;;;2.00;99.90;;;;;;4145435;28;20038;-65
2021/12/21 04:49:32;;;;;;;17.52;6.88;;;2.00;99.90;;;;;;4143818;28;20041;-64
2021/12/21 04:51:33;;;;;;;19.08;7.88;;;2.00;99.90;;;;;;4141561;28;20089;-64
2021/12/21 04:53:34;;;;;;;13.40;6.53;;;2.00;99.90;;;;;;4139041;28;20042;-64
2021/12/21 04:55:35;;;;;;;17.63;7.30;;;1.90;99.90;;;;;;4142848;28;20508;-64
2021/12/21 04:57:35;;;;;;;13.65;6.95;;;1.90;99.90;;;;;;4145129;28;20053;-64
2021/12/21 04:59:36;;;;;;;16.38;7.22;;;1.90;99.90;;;;;;4142024;28;20034;-64
2021/12/21 05:01:37;;;;;;;16.02;7.93;;;1.90;99.90;;;;;;4142373;28;20030;-64
2021/12/21 05:03:37;;;;;;;15.20;6.72;;;1.90;99.90;;;;;;4137715;28;20037;-64
2021/12/21 05:05:38;;;;;;;16.02;7.25;;;1.90;99.90;;;;;;4137342;28;20466;-65
2021/12/21 05:07:41;;;;;;;21.77;7.32;;;1.90;99.90;;;;;;4140732;28;20045;-64
2021/12/21 05:09:45;;;;;;;18.98;8.23;;;1.90;99.90;;;;;;4142872;28;20409;-64
2021/12/21 05:11:45;;;;;;;18.45;7.07;;;1.90;99.90;;;;;;4141581;28;20036;-64
2021/12/21 05:13:46;;;;;;;13.18;7.20;;;1.90;99.90;;;;;;4140067;28;20061;-64
2021/12/21 05:15:47;;;;;;;16.25;7.40;;;1.90;99.90;;;;;;4145792;28;20113;-65
2021/12/21 05:17:47;;;;;;;16.00;7.32;;;1.90;99.90;;;;;;4142967;28;20030;-65
2021/12/21 05:19:48;;;;;;;18.63;8.00;;;1.90;99.90;;;;;;4140610;28;20084;-64
2021/12/21 05:21:49;;;;;;;18.08;7.95;;;1.90;99.90;;;;;;4142823;28;20477;-64
2021/12/21 05:23:49;;;;;;;15.02;7.68;;;1.90;99.90;;;;;;4138715;28;20395;-64
2021/12/21 05:25:50;;;;;;;14.38;7.75;;;1.90;99.90;;;;;;4142223;28;20396;-64
2021/12/21 05:27:51;;;;;;;16.98;7.40;;;1.90;99.90;;;;;;4138748;28;20113;-64
2021/12/21 05:29:51;;;;;;;19.95;7.10;;;1.80;99.90;;;;;;4142692;28;20026;-64
2021/12/21 05:31:52;;;;;;;14.68;7.38;;;1.80;99.90;;;;;;4142429;28;20038;-64
2021/12/21 05:33:53;;;;;;;18.77;7.60;;;1.80;99.90;;;;;;4143152;28;20113;-64
2021/12/21 05:35:54;;;;;;;14.10;6.88;;;1.80;99.90;;;;;;4141102;28;20456;-64
2021/12/21 05:37:59;;;;;;;15.57;7.47;;;1.80;99.90;;;;;;4142953;28;20100;-64
2021/12/21 05:40:21;;;;;;;14.90;7.50;;;1.80;99.90;;;;;;4142812;28;20033;-65
2021/12/21 05:42:22;;;;;;;15.23;6.78;;;1.80;99.90;;;;;;4141782;28;20046;-64
2021/12/21 05:44:24;;;;;;;13.87;6.90;;;1.80;99.90;;;;;;4138837;28;20084;-64
2021/12/21 05:46:25;;;;;;;;;;;1.80;99.90;;;;;;4142368;28;20046;-64
2021/12/21 05:48:25;;;;;;;14.05;7.05;;;1.80;99.90;;;;;;4139756;28;19937;-64
2021/12/21 05:50:26;;;;;;;17.23;7.55;;;1.80;99.90;;;;;;4141956;28;20048;-64
2021/12/21 05:52:26;;;;;;;14.40;7.07;;;1.80;99.90;;;;;;4139370;28;20031;-64
2021/12/21 05:54:27;;;;;;;18.38;8.00;;;1.70;99.90;;;;;;4143415;28;20465;-64
2021/12/21 05:56:27;;;;;;;16.15;7.13;;;1.70;99.90;;;;;;4136822;28;20022;-64
2021/12/21 05:58:28;;;;;;;17.38;7.65;;;1.70;99.90;;;;;;4142123;28;20030;-64
2021/12/21 06:00:32;;;;;;;17.50;7.88;;;1.70;99.90;;;;;;4139103;28;20034;-64
2021/12/21 06:02:33;;;;;;;16.00;7.28;;;1.70;99.90;;;;;;4137751;28;20034;-64
2021/12/21 06:04:34;;;;;;;18.20;8.07;;;1.70;99.90;;;;;;4140971;28;20042;-64
2021/12/21 06:06:35;;;;;;;16.10;7.43;;;1.80;99.90;;;;;;4137245;28;20053;-64
2021/12/21 06:08:35;;;;;;;14.30;6.95;;;1.70;99.90;;;;;;4140098;28;20030;-65
2021/12/21 06:10:40;;;;;;;17.55;7.43;;;1.70;99.90;;;;;;4138897;28;20069;-64
2021/12/21 06:15:50;;;;;;;13.90;7.65;;;1.70;99.90;;;;;;4097609;29;20034;-65
2021/12/21 06:26:39;;;;;;;16.58;7.60;;;1.70;99.90;;;;;;4118138;28;20177;-64
2021/12/21 06:28:41;;;;;;;19.38;7.40;;;1.70;99.90;;;;;;4137089;28;20034;-64
2021/12/21 06:30:42;;;;;;;15.13;7.20;;;1.70;99.90;;;;;;4142799;28;20529;-64
2021/12/21 06:32:44;;;;;;;22.88;8.05;;;1.70;99.90;;;;;;4137942;28;20437;-64
2021/12/21 06:34:45;;;;;;;18.23;8.52;;;1.60;99.90;;;;;;4137660;28;20038;-64
2021/12/21 06:36:46;;;;;;;16.00;7.20;;;1.60;99.90;;;;;;4141669;28;20029;-64
2021/12/21 06:38:47;;;;;;;23.85;7.93;;;1.60;99.90;;;;;;4142462;28;20030;-64
2021/12/21 06:40:48;;;;;;;19.40;7.47;;;1.60;99.90;;;;;;4139180;28;20105;-64
2021/12/21 06:42:50;;;;;;;15.85;7.65;;;1.60;99.90;;;;;;4142261;28;20043;-64
2021/12/21 06:44:56;;;;;;;;;;;1.60;99.90;;;;;;4142595;28;20393;-64
2021/12/21 06:51:49;;;;;;;19.27;7.75;;;1.60;99.90;;;;;;4131656;28;20049;-64
2021/12/21 06:53:53;;;;;;;26.90;11.45;;;1.60;99.90;;;;;;4144076;28;20030;-64
2021/12/21 06:55:54;;;;;;;25.85;11.75;;;1.60;99.90;;;;;;4136565;28;20034;-64
2021/12/21 06:57:55;;;;;;;20.40;9.82;;;1.60;99.90;;;;;;4142163;28;20037;-64
2021/12/21 06:59:56;;;;;;;18.95;8.75;;;1.60;99.90;;;;;;4142915;28;20030;-65
2021/12/21 07:01:57;;;;;;;16.17;7.40;;;1.60;99.90;;;;;;4136021;28;20054;-64
2021/12/21 07:03:58;;;;;;;15.23;7.88;;;1.50;99.90;;;;;;4131044;28;20527;-64
2021/12/21 07:06:02;;;;;;;14.87;7.13;;;1.50;99.90;;;;;;4138565;28;20057;-64
2021/12/21 07:08:04;;;;;;;17.15;7.97;;;1.40;99.90;;;;;;4142023;28;20098;-66
2021/12/21 07:10:10;;;;;;;17.15;7.65;;;1.40;99.90;;;;;;4141798;28;20030;-64
2021/12/21 07:18:58;;;;;;;19.27;8.02;;;1.40;99.90;;;;;;4137261;28;20022;-65
2021/12/21 07:21:00;;;;;;;18.02;8.38;;;1.50;99.90;;;;;;4142762;28;20091;-64
2021/12/21 07:23:01;;;;;;;;;;;1.50;99.90;;;;;;4130984;28;20031;-64
2021/12/21 07:25:03;;;;;;;17.40;7.80;;;1.50;99.90;;;;;;4130766;28;20392;-64
2021/12/21 07:27:04;;;;;;;15.52;7.65;;;1.50;99.90;;;;;;4143096;28;20069;-64
2021/12/21 07:29:05;;;;;;;20.02;8.60;;;1.50;99.90;;;;;;4122337;28;20034;-64
2021/12/21 07:31:06;;;;;;;16.52;8.45;;;1.50;99.90;;;;;;4134432;28;20033;-65
2021/12/21 07:33:08;;;;;;;17.02;7.72;;;1.50;99.90;;;;;;4143377;28;20469;-65
2021/12/21 07:35:08;;;;;;;21.75;7.97;;;1.50;99.90;;;;;;4130547;28;20066;-65
2021/12/21 07:37:10;;;;;;;19.13;7.90;;;1.50;99.90;;;;;;4146513;28;20465;-65
2021/12/21 07:39:13;;;;;;;19.42;8.27;;;1.50;99.90;;;;;;4138403;28;20035;-67
2021/12/21 07:41:15;;;;;;;16.55;8.27;;;1.50;99.90;;;;;;4122004;28;20027;-65
2021/12/21 07:43:16;;;;;;;13.82;7.55;;;1.50;99.90;;;;;;4115702;28;20035;-65
2021/12/21 07:45:16;;;;;;;16.92;8.18;;;1.50;99.90;;;;;;4144422;28;20030;-65
2021/12/21 07:47:18;;;;;;;18.90;7.97;;;1.50;99.90;;;;;;4138328;28;20027;-66
2021/12/21 07:49:18;;;;;;;16.20;7.53;;;1.50;99.90;;;;;;4142291;28;20044;-65
2021/12/21 07:51:19;;;;;;;16.60;7.78;;;1.40;99.90;;;;;;4139341;28;20038;-65
2021/12/21 07:53:20;;;;;;;16.50;6.53;;;1.50;99.90;;;;;;4133792;28;20057;-65
2021/12/21 07:55:21;;;;;;;14.85;7.10;;;1.40;99.90;;;;;;4139136;28;20030;-65
2021/12/21 07:57:22;;;;;;;16.88;7.50;;;1.40;99.90;;;;;;4141790;28;20033;-65
2021/12/21 07:59:23;;;;;;;19.42;7.65;;;1.40;99.90;;;;;;4144879;28;20066;-65
2021/12/21 08:01:24;;;;;;;17.25;7.95;;;1.50;99.90;;;;;;4144261;28;20121;-65
2021/12/21 08:03:25;;;;;;;14.70;7.32;;;1.50;99.90;;;;;;4141771;28;20033;-65
2021/12/21 08:05:31;;;;;;;20.25;8.70;;;1.50;99.90;;;;;;4141657;28;20501;-65
2021/12/21 08:07:37;;;;;;;15.63;7.45;;;1.50;99.90;;;;;;4140006;28;20093;-65
2021/12/21 08:09:41;;;;;;;18.35;7.32;;;1.50;99.90;;;;;;4145132;28;20096;-65
2021/12/21 08:13:47;;;;;;;12.35;6.88;;;1.50;99.90;;;;;;4143802;28;20033;-65
2021/12/21 08:15:48;;;;;;;17.95;8.05;;;1.50;99.90;;;;;;4136316;28;20042;-65
2021/12/21 08:17:49;;;;;;;16.00;7.22;;;1.60;99.90;;;;;;4132637;28;20036;-66
2021/12/21 08:19:49;;;;;;;15.35;7.95;;;1.60;99.90;;;;;;4144781;28;20033;-65
2021/12/21 08:21:50;;;;;;;16.80;7.65;;;1.60;99.90;;;;;;4143830;28;20129;-65
2021/12/21 08:23:51;;;;;;;18.00;8.07;;;1.70;99.90;;;;;;4144640;28;20046;-65
2021/12/21 08:25:54;;;;;;;16.65;7.97;;;1.70;99.90;;;;;;4143446;28;20497;-67
2021/12/21 08:27:59;;;;;;;18.40;7.78;;;1.70;99.90;;;;;;4132381;28;20038;-65
2021/12/21 08:30:00;;;;;;;16.08;7.93;;;1.80;99.90;;;;;;4142061;28;20068;-65
2021/12/21 08:32:00;;;;;;;16.88;8.18;;;1.70;99.90;;;;;;4143869;28;20030;-65
2021/12/21 08:34:01;;;;;;;12.88;6.70;;;1.80;99.90;;;;;;4139778;28;20061;-65
2021/12/21 08:36:03;;;;;;;17.25;8.38;;;1.80;99.90;;;;;;4139459;28;20050;-65
2021/12/21 08:38:05;;;;;;;19.63;9.73;;;1.80;99.90;;;;;;4143917;28;20018;-65
2021/12/21 08:40:10;;;;;;;16.17;8.60;;;1.90;99.90;;;;;;4138887;28;20064;-66
2021/12/21 08:42:13;;;;;;;22.10;10.23;;;1.90;99.90;;;;;;4139070;28;20022;-65
2021/12/21 08:44:20;;;;;;;22.95;9.35;;;1.90;99.90;;;;;;4144093;28;20100;-65
2021/12/21 08:46:22;;;;;;;18.83;9.23;;;1.90;99.90;;;;;;4143213;28;20527;-65
2021/12/21 08:48:23;;;;;;;26.60;9.63;;;1.90;99.90;;;;;;4143787;28;20029;-65
2021/12/21 08:50:24;;;;;;;18.85;9.52;;;2.00;99.90;;;;;;4141628;28;20038;-65
2021/12/21 08:52:24;;;;;;;17.77;9.00;;;2.00;99.90;;;;;;4139042;28;20458;-65
2021/12/21 08:54:25;;;;;;;20.42;10.30;;;2.00;99.90;;;;;;4141009;28;20466;-65
2021/12/21 08:56:26;;;;;;;23.98;10.02;;;2.10;99.90;;;;;;4142638;28;20026;-65
2021/12/21 08:58:27;;;;;;;26.33;11.10;;;2.10;99.90;;;;;;4145014;28;20056;-65
2021/12/21 09:00:27;;;;;;;21.05;9.43;;;2.10;99.90;;;;;;4141768;28;20120;-65
2021/12/21 09:02:33;;;;;;;24.60;9.77;;;2.10;99.90;;;;;;4138869;28;20037;-65
2021/12/21 09:04:34;;;;;;;19.27;8.55;;;2.10;99.90;;;;;;4143278;28;20042;-65
2021/12/21 09:06:35;;;;;;;21.23;9.68;;;2.10;99.90;;;;;;4143061;28;20120;-66
2021/12/21 09:08:35;;;;;;;22.52;10.15;;;2.10;99.90;;;;;;4143486;28;20037;-65
2021/12/21 09:10:38;;;;;;;25.02;10.52;;;2.10;99.90;;;;;;4142129;28;20030;-65
2021/12/21 09:12:39;;;;;;;22.40;10.63;;;2.10;99.90;;;;;;4143444;28;20489;-65
2021/12/21 09:14:40;;;;;;;25.85;12.68;;;2.10;99.90;;;;;;4139142;28;20033;-65
2021/12/21 09:16:41;;;;;;;29.38;13.43;;;2.00;99.90;;;;;;4143037;28;20033;-65
2021/12/21 09:18:41;;;;;;;35.17;13.50;;;1.80;99.90;;;;;;4140549;28;20031;-65
2021/12/21 09:20:42;;;;;;;32.92;14.07;;;1.60;99.90;;;;;;4134979;28;20030;-65
2021/12/21 09:22:43;;;;;;;31.15;13.13;;;1.60;99.90;;;;;;4138284;28;20034;-65
2021/12/21 09:24:45;;;;;;;34.55;15.45;;;1.60;99.90;;;;;;4143723;28;20487;-65
2021/12/21 09:26:45;;;;;;;30.20;14.27;;;1.50;99.90;;;;;;4142359;28;20161;-65
2021/12/21 09:28:46;;;;;;;37.03;14.68;;;1.50;99.90;;;;;;4142888;28;20479;-65
2021/12/21 09:30:47;;;;;;;28.38;11.93;;;1.50;99.90;;;;;;4141793;28;20032;-65
2021/12/21 09:32:48;;;;;;;26.98;12.27;;;1.60;99.90;;;;;;4143520;28;20400;-65
2021/12/21 09:34:48;;;;;;;26.75;12.82;;;1.60;99.90;;;;;;4138464;28;20104;-65
2021/12/21 09:36:49;;;;;;;31.27;13.82;;;1.60;99.90;;;;;;4142202;28;20044;-65
2021/12/21 09:38:50;;;;;;;28.65;13.90;;;1.70;99.90;;;;;;4143272;28;20654;-66
2021/12/21 09:40:54;;;;;;;26.80;12.90;;;1.80;99.90;;;;;;4142103;28;20038;-65
2021/12/21 09:42:56;;;;;;;34.22;15.93;;;1.80;99.90;;;;;;4131249;28;20035;-66
2021/12/21 09:44:58;;;;;;;34.50;14.45;;;1.80;99.90;;;;;;4136797;28;20026;-66
2021/12/21 09:47:01;;;;;;;34.28;15.90;;;1.80;99.90;;;;;;4140482;28;20050;-65
2021/12/21 09:49:02;;;;;;;36.83;15.17;;;1.90;99.90;;;;;;4138643;28;20073;-65
2021/12/21 09:51:03;;;;;;;42.35;17.80;;;2.00;99.90;;;;;;4142190;28;20504;-66
2021/12/21 09:53:04;;;;;;;44.50;17.40;;;1.90;99.90;;;;;;4135909;28;20158;-65
2021/12/21 09:55:08;;;;;;;36.47;16.77;;;2.00;99.90;;;;;;4141117;28;20105;-66
2021/12/21 09:57:08;;;;;;;40.90;17.52;;;2.00;99.90;;;;;;4135142;28;20058;-66
2021/12/21 09:59:09;;;;;;;36.40;16.98;;;2.10;99.90;;;;;;4126023;28;20031;-66
2021/12/21 10:01:10;;;;;;;41.92;18.33;;;2.20;99.90;;;;;;4124373;28;20029;-65
2021/12/21 10:03:11;;;;;;;38.53;17.63;;;2.10;99.90;;;;;;4142645;28;20026;-65
2021/12/21 10:05:17;;;;;;;40.75;18.23;;;2.30;99.90;;;;;;4130548;28;20058;-66
2021/12/21 10:07:19;;;;;;;51.50;21.00;;;2.30;99.90;;;;;;4139825;28;20467;-65
2021/12/21 10:09:23;;;;;;;48.85;21.83;;;2.30;99.90;;;;;;4142291;28;20034;-65
2021/12/21 10:11:24;;;;;;;44.78;21.52;;;2.20;99.90;;;;;;4137511;28;20053;-65
2021/12/21 10:13:26;;;;;;;42.50;19.83;;;2.10;99.90;;;;;;4136946;28;20117;-65
2021/12/21 10:15:27;;;;;;;45.05;19.45;;;2.10;99.90;;;;;;4140385;28;20042;-64
2021/12/21 10:17:32;;;;;;;41.72;17.27;;;2.20;99.90;;;;;;4140592;28;20452;-65
2021/12/21 10:19:34;;;;;;;32.38;15.88;;;2.30;99.90;;;;;;4139558;28;20433;-64
2021/12/21 10:21:45;;;;;;;33.50;15.82;;;2.40;99.90;;;;;;4135181;28;20030;-65
2021/12/21 10:23:48;;;;;;;33.42;15.68;;;2.50;99.90;;;;;;4140162;28;20033;-64
2021/12/21 10:25:59;;;;;;;32.05;14.15;;;2.60;99.90;;;;;;4140403;28;20033;-64
2021/12/21 10:28:00;;;;;;;34.20;16.05;;;2.70;99.90;;;;;;4143078;28;20033;-65
2021/12/21 10:30:00;;;;;;;31.60;14.80;;;2.80;99.90;;;;;;4137775;28;20531;-65
2021/12/21 10:32:01;;;;;;;37.20;15.95;;;2.80;99.90;;;;;;4135291;28;20035;-65
2021/12/21 10:34:05;;;;;;;35.28;16.48;;;2.80;99.90;;;;;;4142390;28;20386;-64
2021/12/21 10:36:07;;;;;;;30.58;14.77;;;2.90;99.90;;;;;;4139306;28;20045;-64
2021/12/21 10:38:08;;;;;;;31.45;13.57;;;2.90;99.90;;;;;;4140586;28;20029;-64
2021/12/21 10:40:26;;;;;;;31.67;14.73;;;3.00;99.90;;;;;;4139416;28;20101;-65
2021/12/21 10:42:26;;;;;;;32.47;14.90;;;3.10;99.90;;;;;;4131753;28;20035;-64
2021/12/21 10:44:27;;;;;;;34.17;14.73;;;3.10;99.90;;;;;;4137245;28;20033;-63
2021/12/21 10:46:30;;;;;;;35.20;16.67;;;3.10;99.90;;;;;;4137263;28;20030;-64
2021/12/21 10:48:35;;;;;;;36.83;15.38;;;3.10;99.90;;;;;;4140517;28;20033;-64
2021/12/21 10:50:36;;;;;;;33.55;15.48;;;3.20;99.90;;;;;;4140157;28;20031;-64
2021/12/21 10:52:40;;;;;;;35.33;15.63;;;3.30;99.90;;;;;;4139623;28;20049;-65
2021/12/21 10:54:42;;;;;;;32.00;15.82;;;3.30;99.90;;;;;;4147129;28;20072;-65
2021/12/21 10:56:42;;;;;;;36.38;15.50;;;3.30;99.90;;;;;;4141716;28;20064;-66
2021/12/21 10:58:45;;;;;;;34.22;15.73;;;3.40;99.90;;;;;;4142197;28;20030;-65
2021/12/21 11:00:50;;;;;;;;;;;3.50;99.90;;;;;;4142050;28;20068;-65
2021/12/21 11:02:54;;;;;;;31.95;14.90;;;3.50;99.90;;;;;;4138103;28;20372;-65
2021/12/21 11:05:06;;;;;;;29.90;14.93;;;3.60;99.90;;;;;;4143644;28;20098;-65
2021/12/21 11:09:28;;;;;;;32.75;16.23;;;3.70;99.90;;;;;;4146443;28;20476;-64
2021/12/21 11:11:33;;;;;;;33.85;15.38;;;3.80;99.90;;;;;;4141362;28;20030;-64
2021/12/21 11:13:34;;;;;;;33.40;14.98;;;3.80;99.90;;;;;;4142375;28;20064;-64
2021/12/21 11:15:38;;;;;;;29.92;15.32;;;3.80;99.90;;;;;;4131174;28;20057;-65
2021/12/21 11:17:39;;;;;;;29.30;14.85;;;3.90;99.90;;;;;;4143799;28;20092;-65
2021/12/21 11:19:40;;;;;;;28.60;14.38;;;3.90;99.90;;;;;;4140417;28;20064;-65
2021/12/21 11:21:42;;;;;;;27.40;14.55;;;3.90;99.90;;;;;;4139888;28;20052;-64
2021/12/21 11:23:43;;;;;;;34.90;15.13;;;4.00;99.90;;;;;;4140735;28;20026;-65
2021/12/21 11:25:47;;;;;;;35.38;14.68;;;4.00;99.90;;;;;;4141697;28;20049;-65
2021/12/21 11:27:50;;;;;;;29.27;14.70;;;4.00;99.90;;;;;;4144642;28;20022;-65
2021/12/21 11:29:55;;;;;;;28.85;13.95;;;4.00;99.90;;;;;;4138107;28;20038;-65
2021/12/21 11:31:57;;;;;;;26.77;13.80;;;4.00;99.90;;;;;;4146568;28;20396;-65
2021/12/21 11:34:00;;;;;;;31.73;14.18;;;4.10;99.90;;;;;;4142231;28;20087;-64
2021/12/21 11:38:22;;;;;;;32.70;15.00;;;4.20;99.90;;;;;;4148093;28;20026;-64
2021/12/21 11:40:32;;;;;;;31.33;14.45;;;4.20;99.90;;;;;;4136760;28;20041;-65
2021/12/21 11:42:35;;;;;;;28.48;14.88;;;4.30;99.90;;;;;;4139949;28;20034;-64